Time;durP1;ratioP1;P1;durP2;ratioP2;P2;SDS_P1;SDS_P2;PMS_P1;PMS_P2;Temp;Humidity;BMP_temperature;BMP_pressure;BME280_temperature;BME280_humidity;BME280_pressure;Samples;Min_cycle;Max_cycle;Signal;HPM_P1;HPM_P2
2022/11/21 00:00:58;;;;;;;5.40;3.83;;;20.30;44.20;;;;;;4991864;28;20046;-65
2022/11/21 00:03:26;;;;;;;4.18;3.70;;;20.30;44.20;;;;;;4991623;28;20544;-65
2022/11/21 00:05:53;;;;;;;5.43;4.22;;;20.30;44.20;;;;;;4991659;28;20046;-64
2022/11/21 00:08:21;;;;;;;7.65;4.53;;;20.30;44.30;;;;;;4991148;28;20049;-65
2022/11/21 00:10:48;;;;;;;6.05;4.70;;;20.30;44.30;;;;;;4974788;28;20061;-65
2022/11/21 00:13:19;;;;;;;5.57;3.97;;;20.30;44.30;;;;;;4988690;28;20106;-65
2022/11/21 00:15:47;;;;;;;5.35;4.85;;;20.30;44.30;;;;;;4990988;28;20053;-65
2022/11/21 00:18:15;;;;;;;4.80;3.75;;;20.30;44.30;;;;;;4974726;28;20046;-64
2022/11/21 00:20:43;;;;;;;5.07;4.10;;;20.30;44.30;;;;;;4990617;28;20046;-65
2022/11/21 00:23:11;;;;;;;5.75;4.22;;;20.30;44.30;;;;;;4991587;28;20056;-64
2022/11/21 00:25:38;;;;;;;4.95;4.38;;;20.30;44.20;;;;;;4991621;28;20154;-65
2022/11/21 00:28:05;;;;;;;6.00;4.47;;;20.30;44.20;;;;;;4975185;28;20050;-65
2022/11/21 00:30:32;;;;;;;4.43;3.72;;;20.30;44.10;;;;;;4955390;28;20485;-61
2022/11/21 00:32:59;;;;;;;6.53;4.70;;;20.30;44.10;;;;;;4971888;28;20046;-64
2022/11/21 00:35:27;;;;;;;4.70;4.03;;;20.30;44.20;;;;;;4972149;28;20068;-64
2022/11/21 00:37:54;;;;;;;5.65;4.47;;;20.30;44.10;;;;;;4955089;28;20417;-64
2022/11/21 00:40:21;;;;;;;5.53;4.28;;;20.30;44.10;;;;;;4971874;28;20055;-64
2022/11/21 00:42:48;;;;;;;5.25;4.20;;;20.30;44.10;;;;;;4955258;28;20055;-65
2022/11/21 00:45:15;;;;;;;5.07;3.88;;;20.30;44.10;;;;;;4972878;28;20082;-65
2022/11/21 00:47:50;;;;;;;4.60;3.83;;;20.30;44.10;;;;;;4974831;28;20047;-64
2022/11/21 00:50:17;;;;;;;4.35;3.80;;;20.30;44.10;;;;;;4975269;28;20524;-65
2022/11/21 00:52:44;;;;;;;4.18;3.75;;;20.30;44.10;;;;;;4975081;28;20043;-65
2022/11/21 00:55:11;;;;;;;5.75;4.30;;;20.30;44.20;;;;;;4975273;28;20058;-64
2022/11/21 00:57:38;;;;;;;4.45;3.85;;;20.30;44.20;;;;;;4974657;28;20062;-65
2022/11/21 01:00:06;;;;;;;4.85;3.80;;;20.30;44.20;;;;;;4975945;28;20065;-65
2022/11/21 01:02:33;;;;;;;3.78;3.30;;;20.30;44.20;;;;;;4975081;28;20050;-65
2022/11/21 01:05:00;;;;;;;5.43;4.10;;;20.30;44.20;;;;;;4958175;28;20042;-64
2022/11/21 01:07:27;;;;;;;4.72;3.60;;;20.30;44.20;;;;;;4975208;28;20239;-64
2022/11/21 01:09:54;;;;;;;4.78;3.60;;;20.30;44.20;;;;;;4974561;28;20390;-64
2022/11/21 01:12:21;;;;;;;4.80;4.15;;;20.30;44.20;;;;;;4974962;28;20057;-65
2022/11/21 01:14:49;;;;;;;5.40;4.00;;;20.30;44.30;;;;;;4974459;28;20215;-65
2022/11/21 01:17:17;;;;;;;4.90;3.65;;;20.30;44.30;;;;;;4973056;28;20137;-64
2022/11/21 01:19:45;;;;;;;5.03;3.72;;;20.30;44.30;;;;;;4954770;28;20043;-64
2022/11/21 01:22:12;;;;;;;6.15;3.97;;;20.30;44.30;;;;;;4974572;28;20051;-64
2022/11/21 01:24:39;;;;;;;5.03;3.67;;;20.30;44.30;;;;;;4957849;28;20134;-64
2022/11/21 01:27:06;;;;;;;5.07;4.35;;;20.30;44.30;;;;;;4957479;28;20043;-64
2022/11/21 01:29:33;;;;;;;4.90;3.25;;;20.30;44.30;;;;;;4974777;28;20073;-65
2022/11/21 01:32:00;;;;;;;4.97;3.72;;;20.30;44.30;;;;;;4974720;28;20129;-65
2022/11/21 01:34:27;;;;;;;4.55;3.92;;;20.30;44.30;;;;;;4974269;28;20043;-65
2022/11/21 01:36:55;;;;;;;6.15;4.10;;;20.30;44.90;;;;;;4974132;28;20047;-65
2022/11/21 01:39:22;;;;;;;4.85;3.67;;;20.30;44.30;;;;;;4956967;28;20051;-65
2022/11/21 01:41:50;;;;;;;4.28;3.58;;;20.30;44.30;;;;;;4974653;28;20051;-65
2022/11/21 01:44:21;;;;;;;4.97;3.72;;;20.30;44.30;;;;;;4974369;28;20047;-65
2022/11/21 01:46:50;;;;;;;4.85;3.80;;;20.30;44.30;;;;;;4974010;28;20046;-65
2022/11/21 01:49:25;;;;;;;5.45;3.97;;;20.30;44.30;;;;;;4957671;28;20047;-64
2022/11/21 01:52:00;;;;;;;3.97;3.35;;;20.30;44.30;;;;;;4970731;28;20093;-64
2022/11/21 01:54:51;;;;;;;4.40;3.88;;;20.30;44.30;;;;;;4973186;28;20051;-64
2022/11/21 01:57:25;;;;;;;3.75;3.08;;;20.20;44.30;;;;;;4973704;28;20046;-64
2022/11/21 02:00:01;;;;;;;5.20;4.20;;;20.20;44.30;;;;;;4956801;28;20046;-65
2022/11/21 02:02:33;;;;;;;4.00;3.60;;;20.20;44.30;;;;;;4974250;28;20364;-65
2022/11/21 02:05:03;;;;;;;3.67;3.28;;;20.20;44.30;;;;;;4956661;28;20051;-65
2022/11/21 02:07:38;;;;;;;3.97;3.58;;;20.20;44.30;;;;;;4956949;28;20055;-61
2022/11/21 02:10:07;;;;;;;4.47;3.00;;;20.20;44.30;;;;;;4974044;28;20054;-63
2022/11/21 02:12:42;;;;;;;4.07;3.10;;;20.20;44.30;;;;;;4973833;28;20050;-65
2022/11/21 02:15:10;;;;;;;3.63;3.30;;;20.20;44.30;;;;;;4957174;28;20046;-64
2022/11/21 02:17:37;;;;;;;3.55;2.92;;;20.20;44.30;;;;;;4973740;28;20055;-65
2022/11/21 02:20:07;;;;;;;4.60;3.10;;;20.20;44.30;;;;;;4973137;28;20093;-64
2022/11/21 02:22:48;;;;;;;3.83;3.42;;;20.20;44.40;;;;;;4969002;28;20055;-64
2022/11/21 02:25:21;;;;;;;4.07;3.55;;;20.20;44.40;;;;;;4974334;28;20055;-65
2022/11/21 02:27:51;;;;;;;2.97;2.67;;;20.20;44.40;;;;;;4956759;28;20061;-64
2022/11/21 02:30:18;;;;;;;3.00;2.70;;;20.20;44.40;;;;;;4973609;28;20054;-61
2022/11/21 02:32:46;;;;;;;4.45;3.40;;;20.20;44.50;;;;;;4973773;28;20055;-64
2022/11/21 02:35:16;;;;;;;3.20;2.90;;;20.20;44.50;;;;;;4956523;28;20053;-64
2022/11/21 02:37:50;;;;;;;3.53;2.88;;;20.10;44.40;;;;;;4973292;28;20047;-64
2022/11/21 02:40:24;;;;;;;3.40;2.90;;;20.20;44.50;;;;;;4956171;28;20529;-64
2022/11/21 02:43:18;;;;;;;3.30;3.00;;;20.20;44.50;;;;;;4980461;28;20133;-64
2022/11/21 02:45:45;;;;;;;2.95;2.63;;;20.20;44.50;;;;;;4992531;28;20386;-61
2022/11/21 02:48:13;;;;;;;3.88;3.47;;;20.20;44.40;;;;;;4992220;28;20065;-64
2022/11/21 02:50:42;;;;;;;3.63;3.10;;;20.20;44.40;;;;;;4992257;28;20053;-64
2022/11/21 02:53:13;;;;;;;3.53;3.20;;;20.20;44.30;;;;;;4990951;28;20089;-64
2022/11/21 02:55:41;;;;;;;3.50;3.20;;;20.20;44.30;;;;;;4989556;28;20141;-64
2022/11/21 02:58:08;;;;;;;3.88;3.15;;;20.20;44.30;;;;;;4974919;28;20092;-65
2022/11/21 03:00:37;;;;;;;3.65;3.20;;;20.20;44.30;;;;;;4962835;28;20272;-64
2022/11/21 03:03:04;;;;;;;3.50;3.20;;;20.20;44.30;;;;;;4972901;28;20047;-61
2022/11/21 03:05:32;;;;;;;3.08;2.78;;;20.20;44.30;;;;;;4955906;28;20054;-65
2022/11/21 03:07:59;;;;;;;3.22;2.80;;;20.20;44.30;;;;;;4972280;28;20054;-64
2022/11/21 03:10:26;;;;;;;3.22;2.92;;;20.20;44.30;;;;;;4971928;28;20057;-64
2022/11/21 03:12:59;;;;;;;3.25;2.75;;;20.20;44.30;;;;;;4972864;28;20039;-64
2022/11/21 03:15:32;;;;;;;2.60;2.40;;;20.20;44.30;;;;;;4955769;28;20050;-64
2022/11/21 03:18:01;;;;;;;3.42;2.95;;;20.20;44.30;;;;;;4955553;28;20528;-64
2022/11/21 03:20:30;;;;;;;2.92;2.47;;;20.20;44.30;;;;;;4972822;28;20054;-64
2022/11/21 03:22:58;;;;;;;2.78;2.50;;;20.20;44.40;;;;;;4972756;28;20065;-64
2022/11/21 03:25:25;;;;;;;3.47;2.70;;;20.20;44.90;;;;;;4968520;28;20054;-63
2022/11/21 03:27:53;;;;;;;3.60;2.80;;;20.20;44.40;;;;;;4972323;28;20069;-61
2022/11/21 03:30:22;;;;;;;3.35;2.67;;;20.20;44.40;;;;;;4972399;28;20055;-64
2022/11/21 03:32:49;;;;;;;3.42;2.80;;;20.20;44.40;;;;;;4972385;28;20061;-64
2022/11/21 03:35:16;;;;;;;3.45;2.90;;;20.20;44.40;;;;;;4972306;28;20057;-64
2022/11/21 03:37:43;;;;;;;3.08;2.70;;;20.20;44.40;;;;;;4955177;28;20544;-64
2022/11/21 03:40:11;;;;;;;3.55;2.40;;;20.10;44.40;;;;;;4972574;28;20047;-64
2022/11/21 03:42:38;;;;;;;3.47;2.30;;;20.10;44.40;;;;;;4972169;28;20057;-64
2022/11/21 03:45:06;;;;;;;2.50;2.15;;;20.20;44.40;;;;;;4955143;28;20069;-64
2022/11/21 03:47:33;;;;;;;3.00;2.70;;;20.20;44.40;;;;;;4955389;28;20051;-64
2022/11/21 03:50:00;;;;;;;2.50;2.22;;;20.20;44.40;;;;;;4972358;28;20504;-64
2022/11/21 03:52:27;;;;;;;2.85;2.40;;;20.10;44.40;;;;;;4972006;28;20053;-64
2022/11/21 03:54:54;;;;;;;2.88;2.40;;;20.10;44.40;;;;;;4971955;28;20051;-65
2022/11/21 03:57:21;;;;;;;3.30;2.17;;;20.20;44.40;;;;;;4953240;28;20051;-65
2022/11/21 03:59:48;;;;;;;2.60;2.40;;;20.10;44.40;;;;;;4951914;28;20043;-65
2022/11/21 04:02:15;;;;;;;2.88;2.47;;;20.10;44.40;;;;;;4971824;28;20055;-64
2022/11/21 04:04:42;;;;;;;2.33;2.13;;;20.20;44.50;;;;;;4972740;28;20070;-64
2022/11/21 04:07:09;;;;;;;2.70;2.28;;;20.10;44.40;;;;;;4972306;28;20386;-62
2022/11/21 04:09:36;;;;;;;2.50;2.30;;;20.10;44.40;;;;;;4971834;28;20051;-64
2022/11/21 04:12:04;;;;;;;2.92;2.17;;;20.10;44.40;;;;;;4955132;28;20046;-64
2022/11/21 04:14:34;;;;;;;3.22;2.92;;;20.20;44.40;;;;;;4972602;28;20135;-65
2022/11/21 04:17:01;;;;;;;3.03;2.72;;;20.10;44.40;;;;;;4954568;28;20409;-64
2022/11/21 04:19:28;;;;;;;2.47;2.20;;;20.10;44.40;;;;;;4958468;28;20050;-64
2022/11/21 04:21:55;;;;;;;2.47;2.22;;;20.10;44.50;;;;;;4975640;28;20668;-64
2022/11/21 04:24:22;;;;;;;1.98;1.77;;;20.10;44.40;;;;;;4975776;28;20532;-65
2022/11/21 04:26:49;;;;;;;3.30;2.50;;;20.10;44.40;;;;;;4975464;28;20061;-64
2022/11/21 04:29:16;;;;;;;3.15;2.33;;;20.10;44.40;;;;;;4971204;28;20046;-64
2022/11/21 04:31:43;;;;;;;2.88;2.33;;;20.10;44.40;;;;;;4958772;28;20482;-65
2022/11/21 04:34:10;;;;;;;2.30;2.10;;;20.10;44.40;;;;;;4937998;29;20070;-64
2022/11/21 04:36:37;;;;;;;1.83;1.73;;;20.10;44.40;;;;;;4972088;28;20051;-65
2022/11/21 04:39:04;;;;;;;2.72;2.28;;;20.10;44.50;;;;;;4975425;28;20110;-64
2022/11/21 04:41:32;;;;;;;2.72;2.10;;;20.10;44.50;;;;;;4958537;28;20058;-64
2022/11/21 04:43:59;;;;;;;2.42;2.05;;;20.10;44.50;;;;;;4975570;28;20050;-64
2022/11/21 04:46:26;;;;;;;1.83;1.73;;;20.10;44.50;;;;;;4975589;28;20050;-65
2022/11/21 04:48:53;;;;;;;2.03;1.85;;;20.00;44.50;;;;;;4974546;28;20053;-61
2022/11/21 04:51:20;;;;;;;2.47;2.10;;;20.10;44.60;;;;;;4974337;28;20051;-64
2022/11/21 04:53:47;;;;;;;2.10;1.90;;;20.00;44.50;;;;;;4955150;28;20059;-64
2022/11/21 04:56:15;;;;;;;2.50;2.30;;;20.10;44.60;;;;;;4964498;28;20043;-64
2022/11/21 04:58:43;;;;;;;1.80;1.70;;;20.10;44.60;;;;;;4972889;28;20556;-65
2022/11/21 05:01:11;;;;;;;2.38;2.05;;;20.10;44.50;;;;;;4972672;28;20216;-65
2022/11/21 05:03:38;;;;;;;3.53;2.45;;;20.10;44.40;;;;;;4968683;28;20398;-65
2022/11/21 05:06:05;;;;;;;2.53;1.98;;;20.10;44.40;;;;;;4973288;28;20090;-64
2022/11/21 05:08:32;;;;;;;2.22;1.88;;;20.10;44.40;;;;;;4956675;28;20457;-64
2022/11/21 05:13:46;;;;;;;2.13;1.90;;;20.10;44.30;;;;;;4959029;28;20047;-64
2022/11/21 05:16:13;;;;;;;2.33;1.73;;;20.10;44.30;;;;;;4972526;28;20065;-64
2022/11/21 05:18:40;;;;;;;1.88;1.77;;;20.10;44.30;;;;;;4957405;28;20047;-65
2022/11/21 05:21:07;;;;;;;1.85;1.75;;;20.10;44.30;;;;;;4974499;28;20053;-63
2022/11/21 05:23:34;;;;;;;1.77;1.67;;;20.10;44.30;;;;;;4957570;28;20046;-64
2022/11/21 05:26:01;;;;;;;2.40;1.77;;;20.10;44.30;;;;;;4973975;28;20053;-65
2022/11/21 05:28:28;;;;;;;2.20;2.00;;;20.10;44.30;;;;;;4968724;28;20058;-64
2022/11/21 05:30:55;;;;;;;1.75;1.63;;;20.10;44.30;;;;;;4974567;28;20181;-65
2022/11/21 05:33:22;;;;;;;2.00;1.80;;;20.10;44.30;;;;;;4971634;28;20368;-65
2022/11/21 05:35:49;;;;;;;2.25;2.05;;;20.20;44.40;;;;;;4970807;28;20050;-65
2022/11/21 05:38:16;;;;;;;2.90;2.17;;;20.10;44.20;;;;;;4974193;28;20047;-64
2022/11/21 05:40:43;;;;;;;2.00;1.80;;;20.10;44.00;;;;;;4973024;28;20101;-64
2022/11/21 05:45:58;;;;;;;2.45;2.25;;;20.10;43.80;;;;;;4973910;28;20416;-64
2022/11/21 05:48:25;;;;;;;2.08;1.85;;;20.20;43.70;;;;;;4973739;28;20046;-64
2022/11/21 05:50:52;;;;;;;2.45;2.10;;;20.20;43.50;;;;;;4974300;28;20051;-64
2022/11/21 05:53:19;;;;;;;1.92;1.80;;;20.20;43.50;;;;;;4974070;28;20433;-64
2022/11/21 05:55:47;;;;;;;2.05;1.85;;;20.20;43.50;;;;;;4964205;28;20116;-64
2022/11/21 05:58:14;;;;;;;1.75;1.63;;;20.10;43.50;;;;;;4973299;28;20432;-64
2022/11/21 06:00:41;;;;;;;2.80;1.92;;;20.10;43.50;;;;;;4956525;28;20051;-65
2022/11/21 06:03:25;;;;;;;1.70;1.60;;;20.10;43.60;;;;;;4973114;28;20505;-65
2022/11/21 06:06:06;;;;;;;2.15;1.80;;;20.10;43.60;;;;;;4968318;28;20517;-65
2022/11/21 06:08:36;;;;;;;2.20;2.00;;;20.10;43.50;;;;;;4951799;28;20047;-61
2022/11/21 06:11:05;;;;;;;2.40;2.03;;;20.00;43.50;;;;;;4971713;28;20062;-65
2022/11/21 06:13:32;;;;;;;1.48;1.38;;;20.00;43.50;;;;;;4969556;28;20461;-61
2022/11/21 06:16:07;;;;;;;2.33;2.00;;;20.00;43.40;;;;;;4975922;28;20042;-61
2022/11/21 06:18:36;;;;;;;2.55;1.75;;;20.00;43.60;;;;;;4957859;28;20131;-61
2022/11/21 06:21:06;;;;;;;2.35;1.98;;;20.00;43.70;;;;;;4957078;29;20047;-63
2022/11/21 06:28:14;;;;;;;3.22;2.03;;;20.10;43.90;;;;;;4969377;28;20477;-67
2022/11/21 06:45:31;;;;;;;1.98;1.77;;;20.30;44.10;;;;;;5479234;23;20054;-63
2022/11/21 06:48:02;;;;;;;2.20;2.00;;;20.30;44.20;;;;;;4996761;28;20106;-65
2022/11/21 06:50:33;;;;;;;1.95;1.77;;;20.40;44.30;;;;;;4997485;28;20396;-62
2022/11/21 06:57:10;;;;;;;3.03;1.92;;;20.30;43.80;;;;;;4974168;28;20142;-62
2022/11/21 06:59:37;;;;;;;2.25;2.05;;;20.40;43.70;;;;;;4959893;28;20055;-62
2022/11/21 07:02:04;;;;;;;3.78;2.70;;;20.40;43.80;;;;;;4977350;28;20051;-63
2022/11/21 07:04:31;;;;;;;2.25;1.95;;;20.50;43.90;;;;;;4977062;28;20054;-62
2022/11/21 07:06:58;;;;;;;2.88;2.35;;;20.50;44.00;;;;;;4977473;28;20043;-63
2022/11/21 07:09:25;;;;;;;3.08;2.47;;;20.50;44.00;;;;;;4976786;28;20055;-62
2022/11/21 07:13:20;;;;;;;3.67;1.70;;;20.60;44.20;;;;;;4976689;28;20131;-66
2022/11/21 07:14:46;;;;;;;3.50;2.40;;;20.60;44.50;;;;;;4963323;28;20061;-62
2022/11/21 07:17:14;;;;;;;2.80;2.30;;;20.60;44.50;;;;;;4977414;28;20046;-64
2022/11/21 07:20:33;;;;;;;1.95;1.75;;;20.70;44.70;;;;;;4967782;28;20049;-61
2022/11/21 07:24:05;;;;;;;3.08;2.00;;;20.70;44.80;;;;;;4971620;28;20034;-63
2022/11/21 07:54:28;;;;;;;6.25;3.28;;;21.10;44.40;;;;;;6105287;23;20320;-65
2022/11/21 07:56:55;;;;;;;8.68;4.20;;;21.20;44.30;;;;;;4961986;28;20043;-64
2022/11/21 07:59:22;;;;;;;10.38;4.82;;;21.20;44.40;;;;;;4980223;28;20057;-64
2022/11/21 08:05:30;;;;;;;6.93;4.38;;;21.20;44.50;;;;;;4976361;28;20073;-62
2022/11/21 08:07:57;;;;;;;7.53;4.65;;;21.30;44.40;;;;;;4979946;28;20065;-63
2022/11/21 08:10:24;;;;;;;6.90;3.92;;;21.30;44.30;;;;;;4962309;28;20052;-62
2022/11/21 08:12:51;;;;;;;5.00;2.88;;;21.30;44.20;;;;;;4979452;28;20053;-62
2022/11/21 08:15:18;;;;;;;8.77;3.63;;;21.30;44.10;;;;;;4978268;28;20311;-62
2022/11/21 08:26:11;;;;;;;7.72;3.47;;;21.30;44.70;;;;;;4978885;28;20042;-62
2022/11/21 08:28:38;;;;;;;7.63;3.50;;;21.30;44.80;;;;;;4964370;28;20050;-61
2022/11/21 08:31:05;;;;;;;4.65;2.92;;;21.30;44.70;;;;;;4971648;28;20126;-63
2022/11/21 08:33:33;;;;;;;4.70;2.58;;;21.30;44.60;;;;;;4977566;28;20055;-62
2022/11/21 08:44:42;;;;;;;7.28;3.28;;;21.40;44.40;;;;;;4979916;28;20046;-62
2022/11/21 08:47:09;;;;;;;5.00;3.20;;;21.50;44.40;;;;;;4979897;28;20133;-66
2022/11/21 08:49:36;;;;;;;6.43;3.10;;;21.50;44.40;;;;;;4979664;28;20509;-63
2022/11/21 08:52:57;;;;;;;5.88;3.08;;;21.50;44.50;;;;;;4976448;28;20051;-64
2022/11/21 08:55:31;;;;;;;4.20;2.70;;;21.50;44.60;;;;;;4979033;28;20481;-63
2022/11/21 08:57:58;;;;;;;6.22;3.38;;;21.60;44.60;;;;;;4979885;28;20050;-64
2022/11/21 09:00:26;;;;;;;4.57;3.00;;;21.60;44.50;;;;;;4979163;28;20062;-64
2022/11/21 09:02:53;;;;;;;4.32;2.85;;;21.60;44.40;;;;;;4978730;28;20416;-63
2022/11/21 09:05:20;;;;;;;5.03;3.35;;;21.60;44.20;;;;;;4977340;28;20050;-63
2022/11/21 09:11:28;;;;;;;6.32;3.30;;;21.70;44.10;;;;;;4973272;28;20058;-63
2022/11/21 09:19:31;;;;;;;4.32;2.80;;;21.80;44.00;;;;;;4979394;28;20077;-66
2022/11/21 09:21:58;;;;;;;3.35;2.70;;;21.80;44.00;;;;;;4979782;28;20105;-64
2022/11/21 09:25:30;;;;;;;4.57;3.20;;;21.80;43.90;;;;;;4975030;28;20477;-64
2022/11/21 09:28:05;;;;;;;3.25;2.75;;;21.90;44.00;;;;;;4958582;29;20074;-64
2022/11/21 09:30:34;;;;;;;4.53;2.55;;;21.90;43.80;;;;;;4963137;29;20065;-66
2022/11/21 09:33:02;;;;;;;4.72;2.70;;;21.90;43.80;;;;;;4958730;28;20047;-63
2022/11/21 09:35:29;;;;;;;5.45;2.45;;;22.00;43.80;;;;;;4959132;29;20131;-63
2022/11/21 09:44:39;;;;;;;6.78;2.60;;;22.10;43.50;;;;;;5140811;23;20046;-64
2022/11/21 09:47:22;;;;;;;3.65;2.10;;;22.20;43.40;;;;;;4997989;28;20054;-64
2022/11/21 09:50:01;;;;;;;2.33;2.00;;;22.30;43.40;;;;;;4997945;28;20058;-65
2022/11/21 09:52:56;;;;;;;3.47;1.92;;;22.30;43.20;;;;;;5002018;28;20053;-65
2022/11/21 09:55:41;;;;;;;4.03;2.65;;;22.30;43.30;;;;;;4980424;28;20054;-64
2022/11/21 09:58:30;;;;;;;3.85;2.03;;;22.30;43.20;;;;;;4998980;28;20046;-64
2022/11/21 10:00:58;;;;;;;3.50;2.20;;;22.40;43.10;;;;;;4998855;28;20404;-65
2022/11/21 10:03:32;;;;;;;2.70;2.05;;;22.40;43.00;;;;;;5001282;28;20046;-64
2022/11/21 10:06:28;;;;;;;4.30;2.10;;;22.40;43.20;;;;;;4984243;28;20047;-67
2022/11/21 10:09:37;;;;;;;3.70;1.92;;;22.50;43.00;;;;;;4976465;28;20053;-69
2022/11/21 10:12:38;;;;;;;3.15;2.08;;;22.50;42.90;;;;;;4977957;28;20062;-64
2022/11/21 10:25:20;;;;;;;2.03;1.70;;;22.60;42.50;;;;;;4976822;28;20453;-66
2022/11/21 10:28:03;;;;;;;3.10;1.83;;;22.50;42.40;;;;;;4953181;29;20058;-68
2022/11/21 10:34:14;;;;;;;2.15;1.95;;;22.50;42.40;;;;;;4958756;28;20081;-63
2022/11/21 10:36:43;;;;;;;;;;;22.50;42.50;;;;;;4957168;29;20054;-66
2022/11/21 10:39:44;;;;;;;2.92;1.95;;;22.60;42.30;;;;;;4958349;28;19977;-66
2022/11/21 10:42:39;;;;;;;2.53;1.88;;;22.50;42.10;;;;;;4957649;28;20093;-62
2022/11/21 10:48:58;;;;;;;1.98;1.67;;;22.60;42.30;;;;;;4955089;28;20516;-66
2022/11/21 10:51:49;;;;;;;4.38;1.95;;;22.60;42.20;;;;;;4957148;29;20558;-62
2022/11/21 10:54:32;;;;;;;4.13;2.05;;;22.70;42.30;;;;;;4953591;28;20051;-62
2022/11/21 10:57:15;;;;;;;2.05;1.80;;;22.70;42.40;;;;;;4957424;29;20059;-66
2022/11/21 11:00:35;;;;;;;2.97;1.98;;;22.70;42.60;;;;;;4954091;28;20054;-63
2022/11/21 11:04:18;;;;;;;1.92;1.70;;;22.70;42.40;;;;;;4953039;28;20054;-66
2022/11/21 11:11:13;;;;;;;4.22;2.60;;;22.80;42.00;;;;;;4959184;28;20073;-63
2022/11/21 11:14:13;;;;;;;14.02;2.22;;;22.90;41.80;;;;;;4941565;29;20138;-63
2022/11/21 11:20:40;;;;;;;2.10;1.90;;;22.90;41.50;;;;;;4955942;29;20106;-62
2022/11/21 11:23:26;;;;;;;2.20;2.00;;;22.90;41.50;;;;;;4957410;29;20500;-64
2022/11/21 11:25:56;;;;;;;6.45;2.17;;;22.90;41.30;;;;;;4957342;29;20062;-64
2022/11/21 11:28:26;;;;;;;3.35;1.88;;;22.90;41.30;;;;;;4957153;29;20051;-64
2022/11/21 11:30:54;;;;;;;4.82;2.30;;;22.90;41.30;;;;;;4957631;29;20078;-64
2022/11/21 11:33:35;;;;;;;2.50;1.88;;;22.90;41.20;;;;;;4950706;28;20047;-64
2022/11/21 11:40:13;;;;;;;3.70;1.95;;;22.90;41.10;;;;;;4929495;29;20082;-67
2022/11/21 11:52:38;;;;;;;6.25;2.33;;;22.90;41.00;;;;;;4956192;29;20409;-65
2022/11/21 11:55:13;;;;;;;2.38;2.17;;;23.00;41.40;;;;;;4955742;29;20092;-63
2022/11/21 11:57:42;;;;;;;2.45;1.85;;;23.00;41.10;;;;;;4956981;28;20066;-65
2022/11/21 12:00:29;;;;;;;2.28;2.03;;;23.00;41.00;;;;;;4956600;29;20122;-63
2022/11/21 12:03:15;;;;;;;2.75;2.17;;;23.00;40.90;;;;;;4956794;29;20418;-63
2022/11/21 12:09:49;;;;;;;3.95;2.22;;;23.00;40.90;;;;;;4970360;28;20055;-62
2022/11/21 12:12:38;;;;;;;2.13;2.00;;;23.10;41.00;;;;;;4959033;28;20386;-61
2022/11/21 12:18:36;;;;;;;2.28;2.08;;;23.00;40.80;;;;;;4976845;28;20129;-65
2022/11/21 12:21:48;;;;;;;5.03;2.78;;;23.10;40.90;;;;;;4975785;28;20050;-64
2022/11/21 12:24:19;;;;;;;7.03;2.47;;;23.10;41.40;;;;;;4975531;28;20572;-68
2022/11/21 12:27:19;;;;;;;2.05;1.80;;;23.10;41.00;;;;;;4976951;28;20398;-67
2022/11/21 12:34:05;;;;;;;5.95;2.15;;;23.10;40.90;;;;;;4977284;28;20043;-64
2022/11/21 12:36:48;;;;;;;2.00;1.73;;;23.10;41.00;;;;;;4961232;28;20061;-63
2022/11/21 12:39:41;;;;;;;2.50;1.42;;;23.10;41.10;;;;;;4976683;28;20054;-62
2022/11/21 12:45:42;;;;;;;2.03;1.50;;;23.10;41.30;;;;;;4979597;28;20478;-62
2022/11/21 12:55:16;;;;;;;1.90;1.67;;;23.10;41.60;;;;;;4979079;28;20069;-63
2022/11/21 13:07:36;;;;;;;3.05;1.92;;;23.10;41.40;;;;;;5021023;23;20046;-61
2022/11/21 13:10:49;;;;;;;2.10;1.90;;;23.10;41.40;;;;;;4998039;28;20042;-61
2022/11/21 13:13:25;;;;;;;3.85;2.05;;;23.10;41.30;;;;;;4994178;28;20050;-62
2022/11/21 13:16:04;;;;;;;3.28;1.92;;;23.10;41.30;;;;;;4980824;28;20503;-64
2022/11/21 13:18:53;;;;;;;3.13;2.00;;;23.10;41.50;;;;;;4995134;28;20042;-62
2022/11/21 13:25:52;;;;;;;3.25;1.98;;;23.00;41.30;;;;;;5020336;23;20052;-64
2022/11/21 13:28:30;;;;;;;2.38;1.90;;;23.00;41.40;;;;;;4978722;28;20480;-63
2022/11/21 13:31:36;;;;;;;2.95;2.20;;;23.00;41.70;;;;;;4965437;28;20051;-67
2022/11/21 13:34:04;;;;;;;2.67;1.55;;;23.00;41.80;;;;;;4979379;28;20052;-67
2022/11/21 13:36:53;;;;;;;2.70;2.10;;;23.00;41.90;;;;;;4977071;28;20142;-63
2022/11/21 13:39:26;;;;;;;4.75;2.00;;;23.00;41.80;;;;;;4978178;28;20058;-63
2022/11/21 13:44:50;;;;;;;2.47;1.85;;;22.90;41.80;;;;;;4979052;28;20051;-63
2022/11/21 13:48:07;;;;;;;3.70;2.05;;;23.00;41.80;;;;;;4979099;28;20051;-64
2022/11/21 13:51:46;;;;;;;2.20;1.75;;;23.00;41.90;;;;;;4968168;28;20081;-63
2022/11/21 13:54:53;;;;;;;5.05;1.80;;;23.00;41.90;;;;;;4961065;28;20047;-63
2022/11/21 13:57:57;;;;;;;4.00;2.80;;;23.00;42.00;;;;;;4963678;28;20078;-62
2022/11/21 14:00:41;;;;;;;5.53;2.50;;;23.00;42.00;;;;;;4966498;28;20055;-63
2022/11/21 14:06:48;;;;;;;2.47;2.03;;;23.00;42.00;;;;;;4978805;28;20062;-62
2022/11/21 14:09:32;;;;;;;2.40;2.20;;;23.00;41.70;;;;;;4978098;28;20069;-64
2022/11/21 14:12:20;;;;;;;2.45;1.83;;;23.00;41.50;;;;;;4977200;28;20051;-64
2022/11/21 14:14:52;;;;;;;2.78;2.53;;;23.00;41.60;;;;;;4960319;28;20054;-63
2022/11/21 14:17:43;;;;;;;3.78;2.70;;;23.00;41.70;;;;;;4980036;28;20332;-65
2022/11/21 14:20:24;;;;;;;3.65;2.95;;;23.00;41.80;;;;;;4978949;28;20054;-65
2022/11/21 14:23:27;;;;;;;2.30;2.10;;;23.00;41.80;;;;;;4977935;28;20058;-63
2022/11/21 14:26:04;;;;;;;4.72;2.80;;;23.00;42.00;;;;;;4978137;28;20051;-64
2022/11/21 14:28:34;;;;;;;3.90;2.13;;;23.00;41.90;;;;;;4960559;28;20101;-67
2022/11/21 14:31:11;;;;;;;4.63;2.75;;;23.00;41.90;;;;;;4977691;28;20408;-64
2022/11/21 14:33:58;;;;;;;4.45;2.25;;;23.10;41.90;;;;;;4969274;28;20501;-64
2022/11/21 14:36:28;;;;;;;4.55;2.83;;;23.00;42.00;;;;;;4977819;28;20050;-63
2022/11/21 14:39:04;;;;;;;5.85;2.65;;;23.10;42.60;;;;;;4959772;28;20054;-65
2022/11/21 14:41:55;;;;;;;7.07;2.70;;;23.10;42.10;;;;;;4976817;28;20051;-62
2022/11/21 14:44:23;;;;;;;5.60;3.25;;;23.10;42.20;;;;;;4961926;28;20050;-63
2022/11/21 15:37:51;;;;;;;5.03;3.03;;;23.00;43.40;;;;;;5190518;23;20468;-67
2022/11/21 15:40:19;;;;;;;7.00;3.33;;;22.90;43.40;;;;;;4977855;28;20061;-70
2022/11/21 15:42:47;;;;;;;2.97;2.25;;;22.90;43.40;;;;;;4976191;28;20042;-67
2022/11/21 15:45:24;;;;;;;8.60;3.38;;;22.90;43.50;;;;;;4990738;28;20053;-63
2022/11/21 15:51:44;;;;;;;3.35;2.53;;;22.90;43.50;;;;;;4990866;28;20092;-69
2022/11/21 15:54:31;;;;;;;3.83;2.70;;;22.80;43.30;;;;;;4991508;28;20049;-70
2022/11/21 15:56:58;;;;;;;7.30;2.78;;;22.80;43.30;;;;;;4976888;28;20052;-66
2022/11/21 15:59:25;;;;;;;5.25;2.67;;;22.80;43.40;;;;;;4995761;28;20046;-63
2022/11/21 16:06:11;;;;;;;5.90;3.05;;;22.80;43.50;;;;;;4991531;28;20415;-65
2022/11/21 16:08:38;;;;;;;7.22;2.92;;;22.80;43.50;;;;;;4993322;28;20061;-64
2022/11/21 16:11:06;;;;;;;4.13;2.78;;;22.80;43.70;;;;;;4992992;28;20484;-66
2022/11/21 16:13:39;;;;;;;3.55;2.70;;;22.80;43.90;;;;;;4992634;28;20050;-64
2022/11/21 16:16:09;;;;;;;7.68;3.35;;;22.80;44.20;;;;;;4995587;28;20054;-63
2022/11/21 16:18:36;;;;;;;12.70;3.55;;;22.70;44.40;;;;;;4980774;28;20070;-67
2022/11/21 16:21:05;;;;;;;5.10;2.85;;;22.70;44.50;;;;;;5000110;28;20512;-67
2022/11/21 16:23:33;;;;;;;7.38;3.05;;;22.70;44.60;;;;;;4993517;28;20049;-67
2022/11/21 16:26:00;;;;;;;5.63;3.08;;;22.70;44.70;;;;;;4994401;28;20062;-67
2022/11/21 16:28:27;;;;;;;7.05;3.65;;;22.60;44.70;;;;;;4977470;28;20049;-68
2022/11/21 16:30:56;;;;;;;7.88;3.42;;;22.60;44.80;;;;;;4977324;28;20304;-67
2022/11/21 16:33:23;;;;;;;8.13;3.35;;;22.50;44.80;;;;;;4994216;28;20328;-68
2022/11/21 16:35:56;;;;;;;8.00;3.25;;;22.50;44.90;;;;;;4993527;28;20430;-68
2022/11/21 16:38:27;;;;;;;7.40;4.07;;;22.40;44.90;;;;;;4993310;28;20451;-68
2022/11/21 16:41:00;;;;;;;5.13;3.28;;;22.40;44.90;;;;;;4994294;28;20051;-68
2022/11/21 16:43:28;;;;;;;6.38;4.03;;;22.40;45.00;;;;;;4994581;28;20072;-68
2022/11/21 16:46:05;;;;;;;4.22;3.05;;;22.30;45.00;;;;;;4994959;28;20060;-68
2022/11/21 16:48:31;;;;;;;7.95;3.35;;;22.30;45.00;;;;;;4973123;28;20202;-68
2022/11/21 16:51:11;;;;;;;8.00;3.63;;;22.30;45.10;;;;;;4994404;28;20079;-68
2022/11/21 16:53:40;;;;;;;10.45;4.20;;;22.20;45.10;;;;;;4994652;28;20046;-68
2022/11/21 16:56:08;;;;;;;9.23;3.75;;;22.20;45.10;;;;;;4995098;28;20046;-68
2022/11/21 16:58:36;;;;;;;12.48;4.63;;;22.10;45.10;;;;;;4994865;28;20057;-68
2022/11/21 17:01:17;;;;;;;6.65;4.07;;;22.10;45.10;;;;;;4995022;28;20470;-67
2022/11/21 17:03:46;;;;;;;6.20;4.47;;;22.10;45.20;;;;;;4994469;28;20058;-67
2022/11/21 17:06:16;;;;;;;14.80;5.20;;;22.00;45.30;;;;;;4994623;28;20287;-68
2022/11/21 17:08:43;;;;;;;5.85;4.13;;;22.00;45.40;;;;;;4994606;28;20200;-68
2022/11/21 17:11:19;;;;;;;9.52;4.47;;;22.00;45.50;;;;;;4994611;28;20448;-68
2022/11/21 17:13:48;;;;;;;8.38;5.00;;;21.90;45.50;;;;;;4994190;28;20046;-67
2022/11/21 17:16:18;;;;;;;8.90;5.07;;;21.90;45.50;;;;;;4994122;28;20046;-67